sensor_id;sensor_type;location;lat;lon;timestamp;temperature;humidity
1680;DHT22;838;51.794;12.258;2022-09-03T00:02:32;15.30;14.50
1680;DHT22;838;51.794;12.258;2022-09-03T00:13:41;15.00;14.50
1680;DHT22;838;51.794;12.258;2022-09-03T00:16:11;14.80;15.40
1680;DHT22;838;51.794;12.258;2022-09-03T00:18:45;14.80;14.80
1680;DHT22;838;51.794;12.258;2022-09-03T00:21:38;15.00;15.20
1680;DHT22;838;51.794;12.258;2022-09-03T00:24:07;15.10;13.40
1680;DHT22;838;51.794;12.258;2022-09-03T00:26:36;15.00;14.60
1680;DHT22;838;51.794;12.258;2022-09-03T00:31:44;15.00;13.40
1680;DHT22;838;51.794;12.258;2022-09-03T00:34:46;15.00;12.80
1680;DHT22;838;51.794;12.258;2022-09-03T00:37:15;14.90;13.70
1680;DHT22;838;51.794;12.258;2022-09-03T00:39:41;14.90;14.00
1680;DHT22;838;51.794;12.258;2022-09-03T00:45:59;14.80;16.20
1680;DHT22;838;51.794;12.258;2022-09-03T00:48:29;14.80;16.60
1680;DHT22;838;51.794;12.258;2022-09-03T00:51:22;14.90;15.30
1680;DHT22;838;51.794;12.258;2022-09-03T00:54:15;15.00;14.60
1680;DHT22;838;51.794;12.258;2022-09-03T01:00:22;14.90;13.20
1680;DHT22;838;51.794;12.258;2022-09-03T01:05:41;15.00;11.50
1680;DHT22;838;51.794;12.258;2022-09-03T01:11:37;15.10;10.70
1680;DHT22;838;51.794;12.258;2022-09-03T01:14:41;15.00;11.50
1680;DHT22;838;51.794;12.258;2022-09-03T01:25:16;15.00;11.90
1680;DHT22;838;51.794;12.258;2022-09-03T01:31:01;14.80;11.70
1680;DHT22;838;51.794;12.258;2022-09-03T01:45:16;14.40;12.80
1680;DHT22;838;51.794;12.258;2022-09-03T01:56:01;14.50;15.10
1680;DHT22;838;51.794;12.258;2022-09-03T01:58:40;14.40;14.40
1680;DHT22;838;51.794;12.258;2022-09-03T02:01:49;14.10;14.70
1680;DHT22;838;51.794;12.258;2022-09-03T02:04:22;13.90;16.10
1680;DHT22;838;51.794;12.258;2022-09-03T02:06:53;13.80;17.30
1680;DHT22;838;51.794;12.258;2022-09-03T02:09:22;13.80;16.30
1680;DHT22;838;51.794;12.258;2022-09-03T02:12:13;13.90;16.90
1680;DHT22;838;51.794;12.258;2022-09-03T02:14:40;14.10;17.20
1680;DHT22;838;51.794;12.258;2022-09-03T02:17:06;14.00;16.20
1680;DHT22;838;51.794;12.258;2022-09-03T02:19:33;13.90;16.30
1680;DHT22;838;51.794;12.258;2022-09-03T02:22:02;14.00;17.00
1680;DHT22;838;51.794;12.258;2022-09-03T02:24:28;14.10;17.80
1680;DHT22;838;51.794;12.258;2022-09-03T02:26:55;14.10;16.30
1680;DHT22;838;51.794;12.258;2022-09-03T02:29:20;14.00;16.20
1680;DHT22;838;51.794;12.258;2022-09-03T02:31:47;13.90;16.90
1680;DHT22;838;51.794;12.258;2022-09-03T02:34:12;13.90;17.70
1680;DHT22;838;51.794;12.258;2022-09-03T02:36:41;13.90;18.30
1680;DHT22;838;51.794;12.258;2022-09-03T02:39:08;13.90;18.60
1680;DHT22;838;51.794;12.258;2022-09-03T02:41:34;13.80;18.00
1680;DHT22;838;51.794;12.258;2022-09-03T02:44:19;13.70;18.30
1680;DHT22;838;51.794;12.258;2022-09-03T02:46:56;13.60;18.20
1680;DHT22;838;51.794;12.258;2022-09-03T02:49:22;13.50;18.70
1680;DHT22;838;51.794;12.258;2022-09-03T02:51:47;13.50;19.00
1680;DHT22;838;51.794;12.258;2022-09-03T02:54:13;13.50;19.70
1680;DHT22;838;51.794;12.258;2022-09-03T02:56:39;13.40;20.10
1680;DHT22;838;51.794;12.258;2022-09-03T02:59:06;13.40;20.10
1680;DHT22;838;51.794;12.258;2022-09-03T03:01:33;13.50;19.00
1680;DHT22;838;51.794;12.258;2022-09-03T03:03:58;13.50;18.80
1680;DHT22;838;51.794;12.258;2022-09-03T03:06:24;13.50;19.20
1680;DHT22;838;51.794;12.258;2022-09-03T03:08:50;13.50;19.20
1680;DHT22;838;51.794;12.258;2022-09-03T03:11:17;13.40;19.70
1680;DHT22;838;51.794;12.258;2022-09-03T03:13:45;13.30;20.70
1680;DHT22;838;51.794;12.258;2022-09-03T03:16:11;13.30;20.10
1680;DHT22;838;51.794;12.258;2022-09-03T03:18:37;13.30;21.00
1680;DHT22;838;51.794;12.258;2022-09-03T03:21:08;13.30;21.20
1680;DHT22;838;51.794;12.258;2022-09-03T03:23:35;13.20;22.10
1680;DHT22;838;51.794;12.258;2022-09-03T03:26:07;13.10;21.80
1680;DHT22;838;51.794;12.258;2022-09-03T03:28:34;13.10;21.60
1680;DHT22;838;51.794;12.258;2022-09-03T03:31:20;13.00;22.20
1680;DHT22;838;51.794;12.258;2022-09-03T03:33:51;13.00;23.50
1680;DHT22;838;51.794;12.258;2022-09-03T03:36:17;12.90;22.90
1680;DHT22;838;51.794;12.258;2022-09-03T03:38:44;12.90;23.40
1680;DHT22;838;51.794;12.258;2022-09-03T03:41:16;12.90;24.20
1680;DHT22;838;51.794;12.258;2022-09-03T03:43:42;13.00;23.50
1680;DHT22;838;51.794;12.258;2022-09-03T03:46:08;13.10;23.20
1680;DHT22;838;51.794;12.258;2022-09-03T03:48:36;13.10;22.80
1680;DHT22;838;51.794;12.258;2022-09-03T03:51:04;13.10;22.90
1680;DHT22;838;51.794;12.258;2022-09-03T03:53:32;13.10;22.10
1680;DHT22;838;51.794;12.258;2022-09-03T03:56:00;13.10;23.00
1680;DHT22;838;51.794;12.258;2022-09-03T03:58:31;13.00;23.00
1680;DHT22;838;51.794;12.258;2022-09-03T04:03:30;12.70;25.30
1680;DHT22;838;51.794;12.258;2022-09-03T04:05:57;12.60;26.10
1680;DHT22;838;51.794;12.258;2022-09-03T04:08:24;12.50;27.40
1680;DHT22;838;51.794;12.258;2022-09-03T04:10:50;12.40;28.20
1680;DHT22;838;51.794;12.258;2022-09-03T04:13:16;12.30;29.00
1680;DHT22;838;51.794;12.258;2022-09-03T04:15:41;12.30;29.50
1680;DHT22;838;51.794;12.258;2022-09-03T04:18:07;12.40;29.40
1680;DHT22;838;51.794;12.258;2022-09-03T04:20:35;12.30;29.50
1680;DHT22;838;51.794;12.258;2022-09-03T04:23:01;12.40;30.20
1680;DHT22;838;51.794;12.258;2022-09-03T04:25:27;12.40;30.30
1680;DHT22;838;51.794;12.258;2022-09-03T04:27:52;12.40;29.20
1680;DHT22;838;51.794;12.258;2022-09-03T04:30:19;12.30;31.20
1680;DHT22;838;51.794;12.258;2022-09-03T04:32:44;12.20;31.30
1680;DHT22;838;51.794;12.258;2022-09-03T04:35:24;12.20;31.10
1680;DHT22;838;51.794;12.258;2022-09-03T04:37:51;12.00;32.70
1680;DHT22;838;51.794;12.258;2022-09-03T04:40:17;11.90;35.50
1680;DHT22;838;51.794;12.258;2022-09-03T04:42:43;11.80;37.00
1680;DHT22;838;51.794;12.258;2022-09-03T04:45:09;11.70;40.70
1680;DHT22;838;51.794;12.258;2022-09-03T04:47:36;11.70;41.50
1680;DHT22;838;51.794;12.258;2022-09-03T04:50:03;11.60;42.00
1680;DHT22;838;51.794;12.258;2022-09-03T04:52:30;11.60;42.90
1680;DHT22;838;51.794;12.258;2022-09-03T04:54:56;11.60;43.20
1680;DHT22;838;51.794;12.258;2022-09-03T04:57:22;11.60;44.40
1680;DHT22;838;51.794;12.258;2022-09-03T04:59:49;11.70;43.40
1680;DHT22;838;51.794;12.258;2022-09-03T05:02:15;11.60;43.40
1680;DHT22;838;51.794;12.258;2022-09-03T05:04:41;11.70;42.80
1680;DHT22;838;51.794;12.258;2022-09-03T05:07:07;11.70;43.30
1680;DHT22;838;51.794;12.258;2022-09-03T05:09:33;11.70;44.00
1680;DHT22;838;51.794;12.258;2022-09-03T05:11:59;11.60;44.20
1680;DHT22;838;51.794;12.258;2022-09-03T05:14:25;11.60;44.90
1680;DHT22;838;51.794;12.258;2022-09-03T05:16:50;11.60;44.60
1680;DHT22;838;51.794;12.258;2022-09-03T05:19:16;11.60;46.20
1680;DHT22;838;51.794;12.258;2022-09-03T05:21:42;11.70;45.40
1680;DHT22;838;51.794;12.258;2022-09-03T05:24:08;11.70;45.20
1680;DHT22;838;51.794;12.258;2022-09-03T05:26:37;11.60;45.10
1680;DHT22;838;51.794;12.258;2022-09-03T05:29:05;11.70;46.20
1680;DHT22;838;51.794;12.258;2022-09-03T05:31:36;11.70;46.70
1680;DHT22;838;51.794;12.258;2022-09-03T05:34:04;11.70;45.90
1680;DHT22;838;51.794;12.258;2022-09-03T05:36:32;11.80;46.80
1680;DHT22;838;51.794;12.258;2022-09-03T05:38:59;11.80;47.30
1680;DHT22;838;51.794;12.258;2022-09-03T05:41:26;11.90;47.90
1680;DHT22;838;51.794;12.258;2022-09-03T05:43:53;12.30;46.90
1680;DHT22;838;51.794;12.258;2022-09-03T05:46:21;13.10;38.90
1680;DHT22;838;51.794;12.258;2022-09-03T05:48:50;14.50;31.90
1680;DHT22;838;51.794;12.258;2022-09-03T05:51:17;16.10;18.80
1680;DHT22;838;51.794;12.258;2022-09-03T05:53:45;17.20;10.10
1680;DHT22;838;51.794;12.258;2022-09-03T05:56:17;17.70;3.80
1680;DHT22;838;51.794;12.258;2022-09-03T05:58:47;18.20;2.30
1680;DHT22;838;51.794;12.258;2022-09-03T06:01:27;18.60;1.00
1680;DHT22;838;51.794;12.258;2022-09-03T06:04:05;19.10;1.00
1680;DHT22;838;51.794;12.258;2022-09-03T06:06:33;20.00;1.00
1680;DHT22;838;51.794;12.258;2022-09-03T06:09:06;20.80;1.00
1680;DHT22;838;51.794;12.258;2022-09-03T06:11:34;21.30;1.00
1680;DHT22;838;51.794;12.258;2022-09-03T06:14:01;21.20;1.00
1680;DHT22;838;51.794;12.258;2022-09-03T06:16:31;20.90;1.00
1680;DHT22;838;51.794;12.258;2022-09-03T06:19:01;20.80;1.00
1680;DHT22;838;51.794;12.258;2022-09-03T06:21:27;21.10;1.00
1680;DHT22;838;51.794;12.258;2022-09-03T06:23:55;20.90;1.00
1680;DHT22;838;51.794;12.258;2022-09-03T06:26:21;20.60;1.00
1680;DHT22;838;51.794;12.258;2022-09-03T06:28:48;19.60;1.00
1680;DHT22;838;51.794;12.258;2022-09-03T06:31:18;18.90;1.00
1680;DHT22;838;51.794;12.258;2022-09-03T06:33:45;18.20;1.00
1680;DHT22;838;51.794;12.258;2022-09-03T06:36:14;17.30;5.80
1680;DHT22;838;51.794;12.258;2022-09-03T06:38:41;16.90;10.00
1680;DHT22;838;51.794;12.258;2022-09-03T06:41:15;16.50;12.50
1680;DHT22;838;51.794;12.258;2022-09-03T06:43:48;16.20;17.00
1680;DHT22;838;51.794;12.258;2022-09-03T06:46:19;16.10;17.00
1680;DHT22;838;51.794;12.258;2022-09-03T06:48:45;16.20;18.60
1680;DHT22;838;51.794;12.258;2022-09-03T06:51:31;16.30;17.50
1680;DHT22;838;51.794;12.258;2022-09-03T06:54:04;16.30;16.60
1680;DHT22;838;51.794;12.258;2022-09-03T06:56:30;16.30;18.30
1680;DHT22;838;51.794;12.258;2022-09-03T06:59:02;16.10;18.30
1680;DHT22;838;51.794;12.258;2022-09-03T07:01:29;16.10;18.60
1680;DHT22;838;51.794;12.258;2022-09-03T07:03:58;16.10;20.70
1680;DHT22;838;51.794;12.258;2022-09-03T07:06:27;16.30;21.70
1680;DHT22;838;51.794;12.258;2022-09-03T07:08:53;16.40;20.50
1680;DHT22;838;51.794;12.258;2022-09-03T07:11:21;16.60;20.00
1680;DHT22;838;51.794;12.258;2022-09-03T07:13:52;16.70;19.10
1680;DHT22;838;51.794;12.258;2022-09-03T07:16:19;16.90;16.70
1680;DHT22;838;51.794;12.258;2022-09-03T07:18:46;17.10;14.00
1680;DHT22;838;51.794;12.258;2022-09-03T07:21:18;17.10;13.00
1680;DHT22;838;51.794;12.258;2022-09-03T07:23:45;17.20;16.40
1680;DHT22;838;51.794;12.258;2022-09-03T07:26:25;17.20;13.30
1680;DHT22;838;51.794;12.258;2022-09-03T07:28:52;17.30;13.10
1680;DHT22;838;51.794;12.258;2022-09-03T07:31:24;17.40;14.50
1680;DHT22;838;51.794;12.258;2022-09-03T07:34:00;17.50;8.80
1680;DHT22;838;51.794;12.258;2022-09-03T07:36:28;17.50;14.80
1680;DHT22;838;51.794;12.258;2022-09-03T07:38:56;17.70;13.30
1680;DHT22;838;51.794;12.258;2022-09-03T07:41:22;17.70;12.10
1680;DHT22;838;51.794;12.258;2022-09-03T07:43:49;17.70;10.90
1680;DHT22;838;51.794;12.258;2022-09-03T07:46:21;17.80;13.00
1680;DHT22;838;51.794;12.258;2022-09-03T07:48:50;17.80;10.70
1680;DHT22;838;51.794;12.258;2022-09-03T07:51:17;17.90;9.10
1680;DHT22;838;51.794;12.258;2022-09-03T07:53:44;18.10;10.30
1680;DHT22;838;51.794;12.258;2022-09-03T07:56:10;18.30;9.70
1680;DHT22;838;51.794;12.258;2022-09-03T07:58:38;18.60;8.80
1680;DHT22;838;51.794;12.258;2022-09-03T08:01:06;18.70;8.50
1680;DHT22;838;51.794;12.258;2022-09-03T08:03:34;18.80;3.20
1680;DHT22;838;51.794;12.258;2022-09-03T08:06:05;18.90;6.80
1680;DHT22;838;51.794;12.258;2022-09-03T08:08:32;18.90;3.40
1680;DHT22;838;51.794;12.258;2022-09-03T08:11:12;18.90;4.70
1680;DHT22;838;51.794;12.258;2022-09-03T08:13:46;18.90;4.00
1680;DHT22;838;51.794;12.258;2022-09-03T08:16:15;18.90;6.20
1680;DHT22;838;51.794;12.258;2022-09-03T08:18:41;19.10;1.60
1680;DHT22;838;51.794;12.258;2022-09-03T08:21:10;19.10;5.10
1680;DHT22;838;51.794;12.258;2022-09-03T08:23:43;19.10;4.50
1680;DHT22;838;51.794;12.258;2022-09-03T08:26:10;19.00;5.60
1680;DHT22;838;51.794;12.258;2022-09-03T08:28:36;19.10;6.40
1680;DHT22;838;51.794;12.258;2022-09-03T08:31:10;19.40;5.10
1680;DHT22;838;51.794;12.258;2022-09-03T08:33:42;19.60;4.50
1680;DHT22;838;51.794;12.258;2022-09-03T08:36:11;19.90;3.70
1680;DHT22;838;51.794;12.258;2022-09-03T08:38:37;20.00;1.00
1680;DHT22;838;51.794;12.258;2022-09-03T08:41:11;20.20;1.00
1680;DHT22;838;51.794;12.258;2022-09-03T08:52:32;20.60;1.00
1680;DHT22;838;51.794;12.258;2022-09-03T08:55:17;20.60;1.00
1680;DHT22;838;51.794;12.258;2022-09-03T08:57:51;20.90;1.00
1680;DHT22;838;51.794;12.258;2022-09-03T09:00:18;21.50;1.00
1680;DHT22;838;51.794;12.258;2022-09-03T09:03:26;22.30;1.00
1680;DHT22;838;51.794;12.258;2022-09-03T09:21:59;26.40;1.00
1680;DHT22;838;51.794;12.258;2022-09-03T09:24:42;26.90;1.00
1680;DHT22;838;51.794;12.258;2022-09-03T09:27:13;27.90;1.00
1680;DHT22;838;51.794;12.258;2022-09-03T09:29:45;28.90;1.00
1680;DHT22;838;51.794;12.258;2022-09-03T09:32:14;29.90;1.00
1680;DHT22;838;51.794;12.258;2022-09-03T09:34:42;29.80;1.00
1680;DHT22;838;51.794;12.258;2022-09-03T09:37:13;30.10;1.00
1680;DHT22;838;51.794;12.258;2022-09-03T09:39:41;30.10;1.00
1680;DHT22;838;51.794;12.258;2022-09-03T09:42:20;28.10;1.00
1680;DHT22;838;51.794;12.258;2022-09-03T09:44:46;26.40;1.00
1680;DHT22;838;51.794;12.258;2022-09-03T09:47:20;25.60;1.00
1680;DHT22;838;51.794;12.258;2022-09-03T09:52:13;23.80;1.00
1680;DHT22;838;51.794;12.258;2022-09-03T09:54:42;23.20;1.00
1680;DHT22;838;51.794;12.258;2022-09-03T09:57:24;23.00;1.00
1680;DHT22;838;51.794;12.258;2022-09-03T10:00:08;22.50;1.00
1680;DHT22;838;51.794;12.258;2022-09-03T10:02:39;22.40;1.00
1680;DHT22;838;51.794;12.258;2022-09-03T10:05:27;22.30;1.00
1680;DHT22;838;51.794;12.258;2022-09-03T10:08:01;22.30;1.00
1680;DHT22;838;51.794;12.258;2022-09-03T10:10:29;22.40;1.00
1680;DHT22;838;51.794;12.258;2022-09-03T10:12:59;22.80;1.00
1680;DHT22;838;51.794;12.258;2022-09-03T10:15:41;22.30;1.00
1680;DHT22;838;51.794;12.258;2022-09-03T10:18:28;22.20;1.00
1680;DHT22;838;51.794;12.258;2022-09-03T10:24:35;22.30;1.00
1680;DHT22;838;51.794;12.258;2022-09-03T10:27:09;22.40;1.00
1680;DHT22;838;51.794;12.258;2022-09-03T10:29:38;22.10;1.00
1680;DHT22;838;51.794;12.258;2022-09-03T10:45:46;22.00;1.00
1680;DHT22;838;51.794;12.258;2022-09-03T10:57:01;22.80;1.00
1680;DHT22;838;51.794;12.258;2022-09-03T11:05:13;22.60;1.00
1680;DHT22;838;51.794;12.258;2022-09-03T11:07:49;22.50;1.00
1680;DHT22;838;51.794;12.258;2022-09-03T11:10:24;22.50;1.00
1680;DHT22;838;51.794;12.258;2022-09-03T11:15:32;22.30;1.00
1680;DHT22;838;51.794;12.258;2022-09-03T11:18:17;22.40;1.00
1680;DHT22;838;51.794;12.258;2022-09-03T11:20:46;22.50;1.00
1680;DHT22;838;51.794;12.258;2022-09-03T11:23:17;22.50;1.00
1680;DHT22;838;51.794;12.258;2022-09-03T11:25:52;22.50;1.00
1680;DHT22;838;51.794;12.258;2022-09-03T11:34:03;22.40;1.00
1680;DHT22;838;51.794;12.258;2022-09-03T11:36:35;22.40;1.00
1680;DHT22;838;51.794;12.258;2022-09-03T11:42:00;22.90;1.00
1680;DHT22;838;51.794;12.258;2022-09-03T11:44:40;23.00;1.00
1680;DHT22;838;51.794;12.258;2022-09-03T11:47:21;22.70;1.00
1680;DHT22;838;51.794;12.258;2022-09-03T11:49:52;22.20;1.00
1680;DHT22;838;51.794;12.258;2022-09-03T11:52:29;22.00;1.00
1680;DHT22;838;51.794;12.258;2022-09-03T11:54:57;22.30;1.00
1680;DHT22;838;51.794;12.258;2022-09-03T11:57:29;22.60;1.00
1680;DHT22;838;51.794;12.258;2022-09-03T12:00:14;23.00;1.00
1680;DHT22;838;51.794;12.258;2022-09-03T12:03:02;23.60;1.00
1680;DHT22;838;51.794;12.258;2022-09-03T12:14:01;23.20;1.00
1680;DHT22;838;51.794;12.258;2022-09-03T12:21:50;24.10;1.00
1680;DHT22;838;51.794;12.258;2022-09-03T12:24:16;24.10;1.00
1680;DHT22;838;51.794;12.258;2022-09-03T12:26:43;23.90;1.00
1680;DHT22;838;51.794;12.258;2022-09-03T12:29:24;23.50;1.00
1680;DHT22;838;51.794;12.258;2022-09-03T12:31:50;23.50;1.00
1680;DHT22;838;51.794;12.258;2022-09-03T12:34:18;23.30;1.00
1680;DHT22;838;51.794;12.258;2022-09-03T12:36:47;23.40;1.00
1680;DHT22;838;51.794;12.258;2022-09-03T12:39:16;23.40;1.00
1680;DHT22;838;51.794;12.258;2022-09-03T12:41:56;23.60;1.00
1680;DHT22;838;51.794;12.258;2022-09-03T12:47:14;23.50;1.00
1680;DHT22;838;51.794;12.258;2022-09-03T12:49:46;23.40;1.00
1680;DHT22;838;51.794;12.258;2022-09-03T12:52:33;23.50;1.00
1680;DHT22;838;51.794;12.258;2022-09-03T12:55:12;23.70;1.00
1680;DHT22;838;51.794;12.258;2022-09-03T12:57:44;24.10;1.00
1680;DHT22;838;51.794;12.258;2022-09-03T13:00:14;24.40;1.00
1680;DHT22;838;51.794;12.258;2022-09-03T13:02:49;24.60;1.00
1680;DHT22;838;51.794;12.258;2022-09-03T13:05:21;24.90;1.00
1680;DHT22;838;51.794;12.258;2022-09-03T13:07:54;24.80;1.00
1680;DHT22;838;51.794;12.258;2022-09-03T13:10:28;24.10;1.00
1680;DHT22;838;51.794;12.258;2022-09-03T13:12:59;23.60;1.00
1680;DHT22;838;51.794;12.258;2022-09-03T13:15:26;23.50;1.00
1680;DHT22;838;51.794;12.258;2022-09-03T13:23:33;23.50;1.00
1680;DHT22;838;51.794;12.258;2022-09-03T13:26:39;23.90;1.00
1680;DHT22;838;51.794;12.258;2022-09-03T13:32:09;24.40;1.00
1680;DHT22;838;51.794;12.258;2022-09-03T13:34:40;24.30;1.00
1680;DHT22;838;51.794;12.258;2022-09-03T13:37:42;24.60;1.00
1680;DHT22;838;51.794;12.258;2022-09-03T13:40:55;24.70;1.00
1680;DHT22;838;51.794;12.258;2022-09-03T13:43:46;24.80;1.00
1680;DHT22;838;51.794;12.258;2022-09-03T13:46:28;24.80;1.00
1680;DHT22;838;51.794;12.258;2022-09-03T13:55:01;24.30;1.00
1680;DHT22;838;51.794;12.258;2022-09-03T14:00:36;24.20;1.00
1680;DHT22;838;51.794;12.258;2022-09-03T14:03:16;24.10;1.00
1680;DHT22;838;51.794;12.258;2022-09-03T14:06:12;24.30;1.00
1680;DHT22;838;51.794;12.258;2022-09-03T14:12:13;24.40;1.00
1680;DHT22;838;51.794;12.258;2022-09-03T14:17:42;24.30;1.00
1680;DHT22;838;51.794;12.258;2022-09-03T14:25:59;24.30;1.00
1680;DHT22;838;51.794;12.258;2022-09-03T14:28:48;24.30;1.00
1680;DHT22;838;51.794;12.258;2022-09-03T14:39:55;24.00;1.00
1680;DHT22;838;51.794;12.258;2022-09-03T14:48:11;24.00;1.00
1680;DHT22;838;51.794;12.258;2022-09-03T14:57:15;23.80;1.00
1680;DHT22;838;51.794;12.258;2022-09-03T15:00:01;23.80;1.00
1680;DHT22;838;51.794;12.258;2022-09-03T15:07:55;23.90;1.00
1680;DHT22;838;51.794;12.258;2022-09-03T15:10:38;24.10;1.00
1680;DHT22;838;51.794;12.258;2022-09-03T15:13:17;24.00;1.00
1680;DHT22;838;51.794;12.258;2022-09-03T15:18:51;24.10;1.00
1680;DHT22;838;51.794;12.258;2022-09-03T15:21:48;23.80;1.00
1680;DHT22;838;51.794;12.258;2022-09-03T15:24:29;24.00;1.00
1680;DHT22;838;51.794;12.258;2022-09-03T15:30:10;24.60;1.00
1680;DHT22;838;51.794;12.258;2022-09-03T15:35:36;24.80;1.00
1680;DHT22;838;51.794;12.258;2022-09-03T15:38:12;25.20;1.00
1680;DHT22;838;51.794;12.258;2022-09-03T15:40:48;24.90;1.00
1680;DHT22;838;51.794;12.258;2022-09-03T15:43:29;25.00;1.00
1680;DHT22;838;51.794;12.258;2022-09-03T15:46:11;24.70;1.00
1680;DHT22;838;51.794;12.258;2022-09-03T15:49:04;24.20;1.00
1680;DHT22;838;51.794;12.258;2022-09-03T15:51:44;23.90;1.00
1680;DHT22;838;51.794;12.258;2022-09-03T15:54:16;23.90;1.00
1680;DHT22;838;51.794;12.258;2022-09-03T15:57:08;23.80;1.00
1680;DHT22;838;51.794;12.258;2022-09-03T15:59:53;23.50;1.00
1680;DHT22;838;51.794;12.258;2022-09-03T16:02:50;23.40;1.00
1680;DHT22;838;51.794;12.258;2022-09-03T16:11:04;23.80;1.00
1680;DHT22;838;51.794;12.258;2022-09-03T16:13:55;23.80;1.00
1680;DHT22;838;51.794;12.258;2022-09-03T16:16:28;24.00;1.00
1680;DHT22;838;51.794;12.258;2022-09-03T16:19:08;24.30;1.00
1680;DHT22;838;51.794;12.258;2022-09-03T16:21:42;24.20;1.00
1680;DHT22;838;51.794;12.258;2022-09-03T16:26:55;24.10;1.00
1680;DHT22;838;51.794;12.258;2022-09-03T16:29:29;24.10;1.00
1680;DHT22;838;51.794;12.258;2022-09-03T16:48:53;23.00;1.00
1680;DHT22;838;51.794;12.258;2022-09-03T16:51:55;23.00;1.00
1680;DHT22;838;51.794;12.258;2022-09-03T16:54:50;23.00;1.00
1680;DHT22;838;51.794;12.258;2022-09-03T17:00:26;23.10;1.00
1680;DHT22;838;51.794;12.258;2022-09-03T17:08:47;22.60;1.00
1680;DHT22;838;51.794;12.258;2022-09-03T17:25:01;22.60;1.00
1680;DHT22;838;51.794;12.258;2022-09-03T17:33:37;22.30;1.00
1680;DHT22;838;51.794;12.258;2022-09-03T17:36:25;22.30;1.00
1680;DHT22;838;51.794;12.258;2022-09-03T17:52:48;22.00;1.00
1680;DHT22;838;51.794;12.258;2022-09-03T17:57:53;21.90;1.00
1680;DHT22;838;51.794;12.258;2022-09-03T18:00:25;21.90;1.00
1680;DHT22;838;51.794;12.258;2022-09-03T18:03:16;21.90;1.00
1680;DHT22;838;51.794;12.258;2022-09-03T18:05:56;21.70;1.00
1680;DHT22;838;51.794;12.258;2022-09-03T18:16:33;21.30;1.00
1680;DHT22;838;51.794;12.258;2022-09-03T18:19:05;21.20;1.00
1680;DHT22;838;51.794;12.258;2022-09-03T18:21:36;21.10;1.00
1680;DHT22;838;51.794;12.258;2022-09-03T18:26:58;20.90;1.00
1680;DHT22;838;51.794;12.258;2022-09-03T18:30:16;20.80;1.00
1680;DHT22;838;51.794;12.258;2022-09-03T18:33:01;20.80;1.00
1680;DHT22;838;51.794;12.258;2022-09-03T18:35:46;20.90;1.00
1680;DHT22;838;51.794;12.258;2022-09-03T18:38:33;20.70;1.00
1680;DHT22;838;51.794;12.258;2022-09-03T18:41:44;20.70;1.00
1680;DHT22;838;51.794;12.258;2022-09-03T18:54:11;20.70;1.00
1680;DHT22;838;51.794;12.258;2022-09-03T18:57:00;20.60;1.00
1680;DHT22;838;51.794;12.258;2022-09-03T19:00:04;20.40;1.00
1680;DHT22;838;51.794;12.258;2022-09-03T19:06:25;20.40;1.00
1680;DHT22;838;51.794;12.258;2022-09-03T19:16:04;19.90;1.00
1680;DHT22;838;51.794;12.258;2022-09-03T19:18:57;19.70;1.00
1680;DHT22;838;51.794;12.258;2022-09-03T19:21:51;19.80;1.00
1680;DHT22;838;51.794;12.258;2022-09-03T19:24:37;19.70;1.00
1680;DHT22;838;51.794;12.258;2022-09-03T19:27:33;19.70;1.00
1680;DHT22;838;51.794;12.258;2022-09-03T19:30:28;19.70;1.00
1680;DHT22;838;51.794;12.258;2022-09-03T19:36:18;19.60;1.00
1680;DHT22;838;51.794;12.258;2022-09-03T19:51:50;19.50;1.00
1680;DHT22;838;51.794;12.258;2022-09-03T19:54:36;19.50;1.00
1680;DHT22;838;51.794;12.258;2022-09-03T19:57:21;19.40;1.00
1680;DHT22;838;51.794;12.258;2022-09-03T20:00:06;19.30;1.00
1680;DHT22;838;51.794;12.258;2022-09-03T20:02:50;19.30;1.00
1680;DHT22;838;51.794;12.258;2022-09-03T20:05:36;19.10;1.00
1680;DHT22;838;51.794;12.258;2022-09-03T20:08:22;19.10;1.00
1680;DHT22;838;51.794;12.258;2022-09-03T20:11:16;19.00;1.00
1680;DHT22;838;51.794;12.258;2022-09-03T20:13:43;18.80;1.00
1680;DHT22;838;51.794;12.258;2022-09-03T20:16:39;18.80;1.00
1680;DHT22;838;51.794;12.258;2022-09-03T20:33:46;18.70;1.00
1680;DHT22;838;51.794;12.258;2022-09-03T20:39:22;18.50;1.00
1680;DHT22;838;51.794;12.258;2022-09-03T20:47:29;18.30;1.00
1680;DHT22;838;51.794;12.258;2022-09-03T20:55:45;18.50;1.00
1680;DHT22;838;51.794;12.258;2022-09-03T20:58:43;18.40;1.00
1680;DHT22;838;51.794;12.258;2022-09-03T21:01:22;18.40;1.90
1680;DHT22;838;51.794;12.258;2022-09-03T21:04:03;18.50;1.20
1680;DHT22;838;51.794;12.258;2022-09-03T21:06:47;18.40;1.90
1680;DHT22;838;51.794;12.258;2022-09-03T21:12:18;18.30;4.80
1680;DHT22;838;51.794;12.258;2022-09-03T21:20:54;18.30;3.80
1680;DHT22;838;51.794;12.258;2022-09-03T21:23:32;18.20;5.10
1680;DHT22;838;51.794;12.258;2022-09-03T21:26:18;18.10;5.80
1680;DHT22;838;51.794;12.258;2022-09-03T21:29:02;18.00;5.50
1680;DHT22;838;51.794;12.258;2022-09-03T21:31:36;17.90;6.40
1680;DHT22;838;51.794;12.258;2022-09-03T21:34:10;17.90;6.50
1680;DHT22;838;51.794;12.258;2022-09-03T21:36:41;17.90;6.40
1680;DHT22;838;51.794;12.258;2022-09-03T21:47:08;17.60;9.60
1680;DHT22;838;51.794;12.258;2022-09-03T21:49:39;17.70;7.00
1680;DHT22;838;51.794;12.258;2022-09-03T21:52:10;17.60;7.90
1680;DHT22;838;51.794;12.258;2022-09-03T21:54:37;17.60;9.40
1680;DHT22;838;51.794;12.258;2022-09-03T22:02:33;17.80;9.20
1680;DHT22;838;51.794;12.258;2022-09-03T22:05:00;17.60;9.60
1680;DHT22;838;51.794;12.258;2022-09-03T22:07:53;17.60;9.30
1680;DHT22;838;51.794;12.258;2022-09-03T22:15:48;17.60;10.50
1680;DHT22;838;51.794;12.258;2022-09-03T22:18:25;17.60;9.20
1680;DHT22;838;51.794;12.258;2022-09-03T22:21:16;17.60;11.30
1680;DHT22;838;51.794;12.258;2022-09-03T22:34:49;17.30;11.30
1680;DHT22;838;51.794;12.258;2022-09-03T22:37:44;17.30;12.00
1680;DHT22;838;51.794;12.258;2022-09-03T22:50:54;17.60;12.40
1680;DHT22;838;51.794;12.258;2022-09-03T22:56:06;17.60;11.70
1680;DHT22;838;51.794;12.258;2022-09-03T23:01:37;17.80;11.30
1680;DHT22;838;51.794;12.258;2022-09-03T23:09:47;17.80;10.40
1680;DHT22;838;51.794;12.258;2022-09-03T23:12:18;17.70;11.00
1680;DHT22;838;51.794;12.258;2022-09-03T23:14:50;17.90;10.20
1680;DHT22;838;51.794;12.258;2022-09-03T23:17:31;18.00;8.20
1680;DHT22;838;51.794;12.258;2022-09-03T23:20:08;18.00;8.00
1680;DHT22;838;51.794;12.258;2022-09-03T23:23:01;17.90;8.80
1680;DHT22;838;51.794;12.258;2022-09-03T23:25:32;17.80;9.50
1680;DHT22;838;51.794;12.258;2022-09-03T23:33:58;17.70;9.80
1680;DHT22;838;51.794;12.258;2022-09-03T23:37:05;17.70;9.40
1680;DHT22;838;51.794;12.258;2022-09-03T23:56:42;17.90;9.20
